Time;durP1;ratioP1;P1;durP2;ratioP2;P2;SDS_P1;SDS_P2;PMS_P1;PMS_P2;Temp;Humidity;BMP_temperature;BMP_pressure;BME280_temperature;BME280_humidity;BME280_pressure;Samples;Min_cycle;Max_cycle;Signal;HPM_P1;HPM_P2
2022/05/15 00:01:10;;;;;;;58.45;32.83;;;15.70;81.50;;;;;;5033103;28;20373;-73
2022/05/15 00:03:38;;;;;;;67.72;36.72;;;15.70;82.10;;;;;;5034152;28;20056;-73
2022/05/15 00:06:05;;;;;;;23.63;13.07;;;15.70;82.70;;;;;;5036261;28;20090;-73
2022/05/15 00:08:35;;;;;;;35.70;22.23;;;15.60;82.00;;;;;;5053290;28;20789;-73
2022/05/15 00:11:04;;;;;;;12.23;5.75;;;15.60;81.80;;;;;;5032560;28;20047;-73
2022/05/15 00:13:32;;;;;;;19.35;9.88;;;15.60;81.90;;;;;;5033788;28;20076;-73
2022/05/15 00:15:59;;;;;;;16.65;8.30;;;15.60;82.30;;;;;;5036081;28;20128;-73
2022/05/15 00:18:27;;;;;;;14.80;5.75;;;15.60;81.90;;;;;;5031165;28;20060;-73
2022/05/15 00:20:54;;;;;;;9.70;5.55;;;15.50;82.00;;;;;;5033811;28;20041;-73
2022/05/15 00:23:23;;;;;;;8.57;5.90;;;15.50;82.20;;;;;;5052646;28;20048;-73
2022/05/15 00:25:51;;;;;;;10.38;5.53;;;15.50;82.50;;;;;;5039006;28;20037;-73
2022/05/15 00:28:18;;;;;;;9.50;6.13;;;15.50;82.80;;;;;;5071529;28;20037;-73
2022/05/15 00:30:45;;;;;;;10.18;6.82;;;15.40;82.80;;;;;;5038429;28;20554;-74
2022/05/15 00:33:12;;;;;;;9.30;6.93;;;15.40;83.70;;;;;;5054537;28;20051;-73
2022/05/15 00:35:39;;;;;;;8.85;5.82;;;15.50;83.40;;;;;;5036882;28;20096;-73
2022/05/15 00:38:09;;;;;;;7.95;4.63;;;15.40;82.80;;;;;;5026103;28;21080;-73
2022/05/15 00:40:39;;;;;;;9.50;5.40;;;15.30;83.00;;;;;;5054187;28;20126;-73
2022/05/15 00:43:11;;;;;;;7.88;5.20;;;15.30;83.30;;;;;;5051998;28;20072;-73
2022/05/15 00:45:38;;;;;;;9.90;5.68;;;15.40;84.30;;;;;;5055712;28;20149;-73
2022/05/15 00:48:06;;;;;;;9.73;4.75;;;15.30;83.80;;;;;;5038382;28;20048;-73
2022/05/15 00:50:37;;;;;;;10.43;5.43;;;15.30;83.90;;;;;;5037769;28;20048;-73
2022/05/15 00:53:09;;;;;;;6.38;4.32;;;15.30;84.00;;;;;;5054554;28;20056;-73
2022/05/15 00:55:40;;;;;;;9.95;4.93;;;15.30;83.70;;;;;;5040815;28;20120;-73
2022/05/15 00:58:16;;;;;;;9.82;5.10;;;15.30;83.40;;;;;;5054503;28;20105;-73
2022/05/15 01:00:44;;;;;;;6.50;4.75;;;15.30;83.70;;;;;;5036299;28;20037;-73
2022/05/15 01:03:14;;;;;;;8.23;3.83;;;15.30;83.50;;;;;;5036254;28;20053;-73
2022/05/15 01:05:45;;;;;;;6.15;3.90;;;15.30;82.70;;;;;;5048210;28;20132;-73
2022/05/15 01:08:20;;;;;;;7.85;3.72;;;15.20;83.10;;;;;;5034138;28;20037;-73
2022/05/15 01:10:50;;;;;;;7.13;3.20;;;15.30;82.20;;;;;;5041392;28;20033;-73
2022/05/15 01:13:21;;;;;;;6.47;3.53;;;15.30;81.30;;;;;;5030272;28;20045;-73
2022/05/15 01:15:49;;;;;;;5.20;2.88;;;15.30;80.80;;;;;;5037027;28;20132;-73
2022/05/15 01:18:25;;;;;;;3.95;2.75;;;15.20;80.10;;;;;;5036371;28;20058;-73
2022/05/15 01:20:56;;;;;;;3.65;2.80;;;15.20;81.00;;;;;;5070781;28;20507;-73
2022/05/15 01:23:24;;;;;;;4.43;3.20;;;15.30;80.40;;;;;;5037636;28;20037;-73
2022/05/15 01:25:52;;;;;;;9.55;3.00;;;15.30;80.50;;;;;;5031478;28;20302;-73
2022/05/15 01:28:22;;;;;;;5.30;3.10;;;15.30;79.80;;;;;;5040012;28;20041;-73
2022/05/15 01:30:53;;;;;;;6.63;3.78;;;15.40;80.30;;;;;;5036819;28;20045;-73
2022/05/15 01:33:22;;;;;;;7.75;3.63;;;15.40;79.70;;;;;;5052952;28;20499;-73
2022/05/15 01:35:49;;;;;;;6.10;3.20;;;15.40;80.30;;;;;;5035540;28;20048;-73
2022/05/15 01:38:18;;;;;;;4.13;3.13;;;15.40;80.90;;;;;;5035415;28;20326;-73
2022/05/15 01:40:48;;;;;;;6.78;3.20;;;15.40;81.40;;;;;;5036905;28;20376;-73
2022/05/15 01:43:17;;;;;;;5.70;3.08;;;15.40;81.90;;;;;;5036914;28;20040;-73
2022/05/15 01:45:44;;;;;;;6.28;3.20;;;15.40;81.70;;;;;;5020755;28;20052;-73
2022/05/15 01:48:12;;;;;;;9.45;3.53;;;15.40;82.80;;;;;;5018995;28;20056;-73
2022/05/15 01:50:42;;;;;;;6.78;3.20;;;15.30;81.60;;;;;;5022616;28;20416;-73
2022/05/15 01:53:14;;;;;;;6.20;3.40;;;15.30;81.60;;;;;;5035708;28;20060;-73
2022/05/15 01:55:42;;;;;;;5.78;3.33;;;15.30;82.30;;;;;;5021053;28;21036;-73
2022/05/15 01:58:10;;;;;;;5.72;3.35;;;15.30;83.00;;;;;;5053157;28;20041;-73
2022/05/15 02:00:38;;;;;;;4.68;3.00;;;15.20;83.00;;;;;;5037412;28;20521;-73
2022/05/15 02:03:05;;;;;;;9.30;3.65;;;15.30;82.70;;;;;;5037686;28;20037;-72
2022/05/15 02:05:32;;;;;;;5.57;2.90;;;15.20;83.00;;;;;;5035100;28;20045;-73
2022/05/15 02:08:00;;;;;;;7.13;3.65;;;15.20;83.60;;;;;;5049402;28;20041;-73
2022/05/15 02:10:27;;;;;;;4.65;3.30;;;15.20;83.90;;;;;;5037651;28;20040;-73
2022/05/15 02:12:54;;;;;;;7.28;4.13;;;15.20;84.60;;;;;;5036801;28;20045;-73
2022/05/15 02:15:22;;;;;;;5.38;3.28;;;15.20;83.70;;;;;;5039192;28;20063;-73
2022/05/15 02:17:50;;;;;;;7.20;3.45;;;15.10;84.30;;;;;;5038710;28;20032;-73
2022/05/15 02:20:17;;;;;;;6.60;3.22;;;15.10;85.60;;;;;;5037948;28;20037;-73
2022/05/15 02:22:45;;;;;;;5.32;3.35;;;15.10;85.70;;;;;;5068258;28;20530;-73
2022/05/15 02:25:14;;;;;;;6.00;3.45;;;15.10;85.00;;;;;;5039758;28;20067;-72
2022/05/15 02:27:43;;;;;;;5.50;3.22;;;15.10;85.20;;;;;;5036515;28;20370;-73
2022/05/15 02:30:11;;;;;;;4.88;3.28;;;15.10;86.80;;;;;;5037166;28;20526;-73
2022/05/15 02:32:39;;;;;;;7.13;3.47;;;15.10;86.40;;;;;;5038970;28;20037;-73
2022/05/15 02:35:07;;;;;;;5.15;3.30;;;15.00;88.00;;;;;;5034596;28;20060;-72
2022/05/15 02:37:35;;;;;;;6.13;3.63;;;15.00;88.20;;;;;;5052161;28;20045;-73
2022/05/15 02:40:05;;;;;;;6.20;3.47;;;15.00;88.10;;;;;;5035542;28;20581;-72
2022/05/15 02:42:33;;;;;;;6.13;3.47;;;15.00;87.60;;;;;;5036125;28;20053;-73
2022/05/15 02:45:00;;;;;;;7.35;3.80;;;15.00;86.60;;;;;;5053356;28;20088;-73
2022/05/15 02:47:27;;;;;;;6.88;4.63;;;15.00;86.20;;;;;;5033577;28;20124;-72
2022/05/15 02:52:42;;;;;;;9.20;5.78;;;14.80;88.00;;;;;;5038165;28;20171;-72
2022/05/15 02:55:10;;;;;;;10.55;4.88;;;14.80;87.60;;;;;;5033930;28;20055;-72
2022/05/15 02:57:40;;;;;;;6.18;4.50;;;14.80;88.00;;;;;;5035844;28;20132;-72
2022/05/15 03:00:10;;;;;;;8.18;4.22;;;14.80;88.20;;;;;;5023505;28;20040;-72
2022/05/15 03:02:38;;;;;;;7.18;4.25;;;14.70;88.20;;;;;;5036372;28;20048;-72
2022/05/15 03:05:08;;;;;;;5.50;4.28;;;14.70;87.10;;;;;;5033710;28;20167;-72
2022/05/15 03:07:36;;;;;;;7.82;5.47;;;14.70;87.50;;;;;;5034756;28;20048;-72
2022/05/15 03:10:05;;;;;;;20.00;14.65;;;14.70;87.10;;;;;;5029270;28;20514;-73
2022/05/15 03:12:32;;;;;;;14.50;9.45;;;14.70;86.60;;;;;;5034472;28;20094;-72
2022/05/15 03:14:59;;;;;;;25.70;17.00;;;14.60;86.30;;;;;;5050421;28;20040;-72
2022/05/15 03:17:26;;;;;;;9.07;5.53;;;14.60;87.10;;;;;;5038406;28;20076;-72
2022/05/15 03:19:53;;;;;;;8.38;4.68;;;14.60;87.20;;;;;;5032077;28;20515;-72
2022/05/15 03:22:21;;;;;;;9.50;4.85;;;14.60;87.60;;;;;;5035513;28;20474;-72
2022/05/15 03:24:48;;;;;;;6.63;4.50;;;14.60;88.00;;;;;;5018337;28;20037;-72
2022/05/15 03:27:16;;;;;;;6.65;4.63;;;14.50;89.30;;;;;;5036317;28;20082;-72
2022/05/15 03:29:43;;;;;;;6.88;4.80;;;14.50;90.10;;;;;;5036119;28;20061;-73
2022/05/15 03:32:10;;;;;;;5.00;4.30;;;14.50;90.00;;;;;;5067873;28;20041;-72
2022/05/15 03:34:39;;;;;;;7.57;3.85;;;14.50;90.40;;;;;;5034774;28;20175;-72
2022/05/15 03:37:07;;;;;;;8.45;4.25;;;14.50;90.30;;;;;;5034389;28;20125;-72
2022/05/15 03:39:34;;;;;;;5.85;4.47;;;14.50;90.50;;;;;;5037144;28;20053;-73
2022/05/15 03:42:01;;;;;;;7.55;4.75;;;14.50;90.70;;;;;;5034795;28;20045;-72
2022/05/15 03:44:29;;;;;;;7.00;4.63;;;14.50;91.10;;;;;;5034751;28;20581;-72
2022/05/15 03:46:56;;;;;;;6.40;4.25;;;14.40;90.90;;;;;;5018806;28;20045;-72
2022/05/15 03:49:23;;;;;;;6.70;3.90;;;14.50;91.10;;;;;;5042501;28;20037;-72
2022/05/15 03:51:50;;;;;;;6.10;4.15;;;14.40;90.70;;;;;;5050077;28;20037;-72
2022/05/15 03:54:17;;;;;;;7.47;4.65;;;14.40;90.80;;;;;;5034843;28;20573;-74
2022/05/15 03:56:50;;;;;;;5.78;3.97;;;14.50;91.00;;;;;;5052901;28;20052;-72
2022/05/15 03:59:27;;;;;;;9.30;4.95;;;14.50;91.10;;;;;;5036387;28;20061;-72
2022/05/15 04:01:54;;;;;;;10.52;6.03;;;14.50;91.70;;;;;;5026899;28;20084;-72
2022/05/15 04:04:25;;;;;;;98.05;49.25;;;14.50;91.50;;;;;;5047928;28;20049;-72
2022/05/15 04:06:52;;;;;;;55.90;28.63;;;14.50;91.50;;;;;;5034954;28;20043;-72
2022/05/15 04:09:19;;;;;;;34.83;19.98;;;14.50;91.50;;;;;;5033827;28;20608;-72
2022/05/15 04:11:47;;;;;;;62.30;35.75;;;14.60;92.20;;;;;;5035070;28;20033;-72
2022/05/15 04:14:14;;;;;;;61.45;34.47;;;14.60;91.90;;;;;;5034669;28;20543;-72
2022/05/15 04:16:41;;;;;;;36.95;22.70;;;14.70;92.50;;;;;;5038789;28;20045;-72
2022/05/15 04:19:08;;;;;;;21.38;12.07;;;14.80;92.40;;;;;;5032011;28;20090;-72
2022/05/15 04:21:40;;;;;;;13.82;8.60;;;14.80;92.70;;;;;;5033288;28;20053;-73
2022/05/15 04:24:10;;;;;;;9.07;6.78;;;14.80;92.50;;;;;;5034801;28;20049;-73
2022/05/15 04:26:39;;;;;;;11.13;6.25;;;14.90;92.20;;;;;;5036647;28;20041;-72
2022/05/15 04:29:06;;;;;;;12.43;7.38;;;15.00;92.20;;;;;;5034921;28;20098;-73
2022/05/15 04:31:34;;;;;;;11.88;7.57;;;15.00;91.50;;;;;;5036515;28;20091;-73
2022/05/15 04:34:02;;;;;;;9.32;6.95;;;15.10;92.10;;;;;;5047928;28;20084;-73
2022/05/15 04:36:33;;;;;;;12.48;7.03;;;15.20;92.50;;;;;;5036079;28;20033;-73
2022/05/15 04:39:03;;;;;;;12.55;5.88;;;15.20;93.20;;;;;;5051045;28;20056;-73
2022/05/15 04:41:31;;;;;;;9.27;5.05;;;15.30;92.90;;;;;;5028990;28;20511;-73
2022/05/15 04:43:58;;;;;;;6.70;5.18;;;15.40;91.50;;;;;;5033911;28;20045;-73
2022/05/15 04:46:29;;;;;;;7.15;4.30;;;15.50;92.00;;;;;;5035329;28;20128;-73
2022/05/15 04:48:57;;;;;;;7.93;4.80;;;15.60;91.70;;;;;;5037773;28;20075;-73
2022/05/15 04:51:25;;;;;;;6.50;4.03;;;15.60;91.80;;;;;;5033608;28;20137;-73
2022/05/15 04:53:53;;;;;;;6.45;4.20;;;15.70;91.20;;;;;;5035932;28;20033;-73
2022/05/15 04:56:21;;;;;;;5.75;4.50;;;15.80;90.60;;;;;;5043392;28;20076;-73
2022/05/15 04:58:48;;;;;;;6.75;3.50;;;15.90;89.40;;;;;;5033905;28;20044;-73
2022/05/15 05:01:15;;;;;;;5.30;3.30;;;16.00;87.10;;;;;;5028570;28;21888;-73
2022/05/15 05:03:42;;;;;;;6.82;3.40;;;16.10;85.40;;;;;;4989553;28;20079;-73
2022/05/15 05:06:11;;;;;;;7.10;3.58;;;16.30;85.90;;;;;;4989330;28;21430;-73
2022/05/15 05:08:38;;;;;;;8.95;3.13;;;16.40;82.40;;;;;;4991698;28;20044;-74
2022/05/15 05:11:05;;;;;;;5.22;2.58;;;16.50;82.70;;;;;;4996139;28;20134;-73
2022/05/15 05:13:32;;;;;;;6.13;3.28;;;16.60;82.60;;;;;;4986305;28;20057;-73
2022/05/15 05:15:59;;;;;;;3.40;2.65;;;16.80;82.90;;;;;;4983625;28;22146;-73
2022/05/15 05:18:26;;;;;;;8.00;3.50;;;16.90;80.30;;;;;;5008755;28;20693;-74
2022/05/15 05:20:54;;;;;;;6.43;2.88;;;17.10;79.40;;;;;;4997274;28;20063;-73
2022/05/15 05:23:21;;;;;;;4.40;2.60;;;17.20;79.20;;;;;;4997756;28;22436;-73
2022/05/15 05:25:48;;;;;;;6.30;2.60;;;17.40;79.40;;;;;;4996651;28;20970;-74
2022/05/15 05:28:16;;;;;;;7.22;3.00;;;17.50;77.30;;;;;;4994831;28;20045;-73
2022/05/15 05:30:43;;;;;;;4.68;2.22;;;17.70;78.20;;;;;;5010452;28;20661;-74
2022/05/15 05:33:11;;;;;;;5.18;2.28;;;17.90;78.00;;;;;;4979424;28;20056;-74
2022/05/15 05:35:38;;;;;;;4.05;2.33;;;18.00;77.00;;;;;;4979334;28;20056;-74
2022/05/15 05:38:06;;;;;;;5.97;2.60;;;18.20;75.60;;;;;;5025621;28;20653;-74
2022/05/15 05:40:34;;;;;;;3.53;2.60;;;18.40;76.40;;;;;;5008490;28;20167;-74
2022/05/15 05:43:01;;;;;;;3.67;2.10;;;18.50;75.10;;;;;;5028729;28;20517;-74
2022/05/15 05:45:28;;;;;;;4.28;1.95;;;18.60;74.30;;;;;;4996596;28;20768;-74
2022/05/15 05:47:56;;;;;;;6.15;2.40;;;18.70;73.10;;;;;;4994897;28;20060;-74
2022/05/15 05:50:25;;;;;;;4.13;2.20;;;18.80;72.10;;;;;;4995188;28;20049;-74
2022/05/15 05:52:54;;;;;;;5.82;2.38;;;18.90;72.30;;;;;;4998072;28;20408;-73
2022/05/15 05:55:22;;;;;;;3.42;2.00;;;19.00;71.40;;;;;;5027896;28;20407;-76
2022/05/15 05:57:50;;;;;;;4.93;2.00;;;19.30;73.00;;;;;;5012329;28;20049;-76
2022/05/15 06:00:33;;;;;;;4.45;2.22;;;19.40;70.20;;;;;;4991418;28;20576;-73
2022/05/15 06:05:46;;;;;;;4.70;2.72;;;19.60;67.40;;;;;;4996309;28;20572;-74
2022/05/15 06:08:14;;;;;;;7.82;2.47;;;19.70;68.80;;;;;;4988486;28;20048;-74
2022/05/15 06:10:42;;;;;;;4.55;2.15;;;19.90;69.30;;;;;;4996907;28;22045;-74
2022/05/15 06:13:10;;;;;;;2.35;2.00;;;20.10;68.90;;;;;;4994420;28;20052;-74
2022/05/15 06:15:37;;;;;;;4.13;2.05;;;20.20;68.50;;;;;;4997246;28;20716;-75
2022/05/15 06:18:05;;;;;;;6.63;2.40;;;20.30;67.30;;;;;;4997670;28;20151;-74
2022/05/15 06:20:33;;;;;;;6.25;2.08;;;20.40;66.70;;;;;;4992378;28;20423;-74
2022/05/15 06:23:00;;;;;;;3.17;1.60;;;20.50;66.70;;;;;;4995859;28;20057;-74
2022/05/15 06:25:27;;;;;;;6.07;2.38;;;20.60;67.00;;;;;;4998064;28;20049;-74
2022/05/15 06:27:54;;;;;;;4.38;2.15;;;20.60;65.60;;;;;;4994920;28;20120;-74
2022/05/15 06:30:21;;;;;;;3.65;1.73;;;20.80;65.50;;;;;;4996804;28;20087;-74
2022/05/15 06:32:48;;;;;;;7.47;2.10;;;20.90;66.00;;;;;;4996123;28;20049;-74
2022/05/15 06:35:16;;;;;;;4.25;1.80;;;21.00;66.00;;;;;;4983584;28;20512;-74
2022/05/15 06:37:43;;;;;;;2.92;1.42;;;21.10;65.30;;;;;;4977644;28;20045;-74
2022/05/15 06:40:13;;;;;;;5.38;2.40;;;21.20;62.70;;;;;;4996604;28;20187;-74
2022/05/15 06:42:41;;;;;;;4.20;1.20;;;21.20;62.50;;;;;;5026714;28;20049;-74
2022/05/15 06:45:11;;;;;;;2.35;1.65;;;21.40;59.80;;;;;;5013130;28;20052;-75
2022/05/15 06:47:38;;;;;;;4.13;1.52;;;21.50;59.90;;;;;;5012626;28;20583;-74
2022/05/15 06:50:08;;;;;;;2.97;1.42;;;21.50;60.30;;;;;;4993859;28;20052;-74
2022/05/15 06:52:36;;;;;;;3.58;1.33;;;21.60;58.30;;;;;;4995546;28;20041;-74
2022/05/15 06:55:11;;;;;;;3.58;1.60;;;21.70;56.90;;;;;;4991219;28;20594;-74
2022/05/15 06:57:39;;;;;;;2.53;1.00;;;21.70;55.10;;;;;;4994066;28;20056;-74
2022/05/15 07:00:14;;;;;;;2.00;1.27;;;21.80;55.40;;;;;;4991787;28;21219;-74
2022/05/15 07:02:41;;;;;;;4.15;1.40;;;21.90;56.00;;;;;;4985164;28;20065;-74
2022/05/15 07:05:16;;;;;;;4.45;1.85;;;22.00;57.80;;;;;;4993520;28;20591;-73
2022/05/15 07:07:44;;;;;;;2.03;1.27;;;21.90;55.50;;;;;;4993332;28;20037;-74
2022/05/15 07:10:12;;;;;;;2.50;1.25;;;22.10;59.00;;;;;;5002385;28;20053;-74
2022/05/15 07:12:39;;;;;;;3.53;1.40;;;22.30;58.50;;;;;;4987645;28;20889;-74
2022/05/15 07:15:07;;;;;;;3.65;1.17;;;22.40;58.00;;;;;;4990575;28;20045;-74
2022/05/15 07:17:35;;;;;;;4.00;1.30;;;22.40;55.40;;;;;;5024327;28;20080;-74
2022/05/15 07:20:03;;;;;;;6.00;1.30;;;22.40;55.70;;;;;;4995119;28;20207;-74
2022/05/15 07:22:31;;;;;;;2.33;1.48;;;22.60;56.80;;;;;;4989544;28;20041;-74
2022/05/15 07:24:58;;;;;;;3.97;1.30;;;22.70;56.30;;;;;;4994759;28;20045;-73
2022/05/15 07:27:25;;;;;;;2.83;1.98;;;22.60;53.90;;;;;;4995180;28;20153;-74
2022/05/15 07:29:52;;;;;;;4.22;1.13;;;22.50;53.40;;;;;;4996216;28;20078;-74
2022/05/15 07:32:19;;;;;;;4.15;1.42;;;22.80;55.90;;;;;;4987355;28;20045;-74
2022/05/15 07:34:47;;;;;;;2.78;1.35;;;22.90;57.80;;;;;;4992444;28;20064;-73
2022/05/15 07:37:16;;;;;;;3.00;0.98;;;23.00;55.10;;;;;;4993810;28;20048;-73
2022/05/15 07:39:44;;;;;;;5.40;1.48;;;23.10;55.30;;;;;;4995536;28;20159;-74
2022/05/15 07:42:11;;;;;;;2.03;0.88;;;23.20;53.30;;;;;;4976376;28;20041;-74
2022/05/15 07:44:39;;;;;;;3.83;1.15;;;23.30;54.80;;;;;;4990622;28;20848;-74
2022/05/15 07:47:08;;;;;;;3.72;1.27;;;23.30;52.80;;;;;;4993089;28;20160;-74
2022/05/15 07:49:43;;;;;;;2.75;1.42;;;23.40;53.90;;;;;;5009087;28;20833;-72
2022/05/15 07:52:10;;;;;;;2.70;1.00;;;23.40;51.90;;;;;;5021363;28;20173;-75
2022/05/15 07:54:37;;;;;;;3.88;0.90;;;23.30;51.60;;;;;;5026987;28;20059;-74
2022/05/15 07:57:06;;;;;;;3.58;1.02;;;23.10;51.40;;;;;;5010452;28;20166;-74
2022/05/15 07:59:33;;;;;;;3.78;1.08;;;23.30;51.20;;;;;;4993175;28;22132;-74
2022/05/15 08:02:06;;;;;;;3.97;1.23;;;23.30;52.50;;;;;;4988959;28;20061;-74
2022/05/15 08:08:00;;;;;;;1.58;0.80;;;23.40;52.70;;;;;;5022259;28;20064;-74
2022/05/15 08:10:10;;;;;;;2.25;0.93;;;23.90;54.90;;;;;;5006342;28;20539;-74
2022/05/15 08:12:38;;;;;;;2.83;0.75;;;23.90;53.70;;;;;;4994270;28;20212;-74
2022/05/15 08:15:07;;;;;;;1.50;0.70;;;23.90;51.90;;;;;;5008456;28;20530;-75
2022/05/15 08:17:34;;;;;;;5.65;1.77;;;23.90;48.60;;;;;;4991324;28;20098;-74
2022/05/15 08:25:34;;;;;;;1.85;0.85;;;23.80;48.70;;;;;;4992571;28;20535;-74
2022/05/15 08:28:01;;;;;;;4.60;0.70;;;23.80;49.60;;;;;;4987821;28;20163;-74
2022/05/15 08:30:28;;;;;;;2.00;0.60;;;23.90;49.60;;;;;;5000644;28;20183;-74
2022/05/15 08:32:56;;;;;;;4.30;1.15;;;24.10;51.20;;;;;;4988524;28;20243;-74
2022/05/15 08:35:23;;;;;;;1.90;0.90;;;24.10;50.50;;;;;;5003417;28;20519;-74
2022/05/15 08:37:50;;;;;;;4.88;1.08;;;24.30;50.10;;;;;;4984524;28;20075;-74
2022/05/15 08:40:25;;;;;;;1.48;0.65;;;24.30;49.60;;;;;;4989093;28;20041;-74
2022/05/15 08:42:58;;;;;;;2.80;1.17;;;24.20;47.40;;;;;;4993213;28;20195;-74
2022/05/15 08:45:37;;;;;;;1.30;0.63;;;24.10;47.30;;;;;;5013714;28;20045;-74
2022/05/15 08:48:12;;;;;;;5.65;1.15;;;24.10;47.50;;;;;;5031939;28;20056;-74
2022/05/15 08:50:48;;;;;;;2.33;0.80;;;24.10;50.00;;;;;;5015085;28;20132;-74
2022/05/15 08:53:25;;;;;;;3.35;0.90;;;24.10;48.00;;;;;;5016336;28;20101;-73
2022/05/15 08:55:55;;;;;;;3.50;0.80;;;24.10;47.50;;;;;;4999380;28;20045;-74
2022/05/15 08:58:36;;;;;;;3.30;0.60;;;24.10;46.50;;;;;;4999204;28;20057;-73
2022/05/15 09:01:06;;;;;;;5.80;0.68;;;24.00;46.70;;;;;;4996599;28;20045;-74
2022/05/15 09:03:37;;;;;;;2.97;0.75;;;24.10;47.10;;;;;;4982712;28;20384;-74
2022/05/15 09:06:26;;;;;;;3.65;0.57;;;24.10;46.70;;;;;;5000364;28;20041;-74
2022/05/15 09:09:18;;;;;;;3.40;0.77;;;24.00;45.80;;;;;;5032765;28;20076;-75
2022/05/15 09:11:57;;;;;;;3.27;0.70;;;24.10;46.60;;;;;;4997283;28;20626;-74
2022/05/15 09:14:30;;;;;;;3.85;0.65;;;24.30;47.80;;;;;;4999013;28;20049;-74
2022/05/15 09:17:34;;;;;;;3.08;0.98;;;24.40;48.20;;;;;;5028623;28;20055;-73
2022/05/15 09:20:09;;;;;;;3.53;1.13;;;24.40;46.90;;;;;;5030707;28;20053;-74
2022/05/15 09:22:41;;;;;;;2.85;0.88;;;24.60;47.90;;;;;;4981442;28;20057;-74
2022/05/15 09:25:25;;;;;;;3.20;0.73;;;24.60;47.00;;;;;;4999790;28;20053;-74
2022/05/15 09:28:01;;;;;;;2.28;1.30;;;24.60;46.10;;;;;;4998546;28;20057;-74
2022/05/15 09:30:42;;;;;;;3.42;0.80;;;24.70;48.80;;;;;;5013849;28;20048;-74
2022/05/15 09:33:25;;;;;;;2.22;0.65;;;24.70;46.90;;;;;;4981583;28;20088;-75
2022/05/15 09:36:20;;;;;;;2.08;0.68;;;24.70;48.10;;;;;;4996422;28;22073;-75
2022/05/15 09:38:49;;;;;;;3.05;0.80;;;24.70;47.30;;;;;;4999075;28;20044;-75
2022/05/15 09:44:33;;;;;;;2.08;0.73;;;24.70;47.00;;;;;;4992601;28;20067;-75
2022/05/15 09:47:24;;;;;;;2.70;0.68;;;24.90;45.90;;;;;;4990121;28;20049;-74
2022/05/15 09:49:51;;;;;;;3.00;0.60;;;24.90;48.10;;;;;;4981689;28;20531;-74
2022/05/15 09:52:26;;;;;;;2.03;0.82;;;25.10;49.60;;;;;;4994192;28;20162;-74
2022/05/15 09:55:07;;;;;;;3.35;1.02;;;25.00;45.10;;;;;;4983608;28;20302;-75
2022/05/15 09:57:35;;;;;;;1.30;0.50;;;25.00;49.30;;;;;;4989720;28;21896;-74
2022/05/15 10:00:08;;;;;;;2.85;1.05;;;25.10;48.20;;;;;;4999566;28;20045;-75
2022/05/15 10:02:44;;;;;;;3.10;1.10;;;25.20;46.80;;;;;;5028850;28;20126;-74
2022/05/15 10:05:23;;;;;;;1.70;0.63;;;25.00;46.30;;;;;;4997272;28;20051;-75
2022/05/15 10:08:00;;;;;;;2.03;0.60;;;24.70;46.20;;;;;;5011981;28;21944;-74
2022/05/15 10:10:58;;;;;;;3.38;0.45;;;24.50;47.30;;;;;;4998198;28;20037;-74
2022/05/15 10:13:44;;;;;;;3.83;0.40;;;24.70;45.20;;;;;;5007070;28;20057;-74
2022/05/15 10:16:25;;;;;;;4.18;0.60;;;24.80;44.60;;;;;;5011372;28;20049;-74
2022/05/15 10:18:55;;;;;;;3.15;0.52;;;24.70;44.20;;;;;;4999777;28;22698;-75
2022/05/15 10:21:28;;;;;;;2.80;0.38;;;25.00;44.50;;;;;;4998987;28;20045;-75
2022/05/15 10:24:00;;;;;;;4.60;0.70;;;25.10;44.00;;;;;;4997724;28;20179;-75
2022/05/15 10:26:41;;;;;;;2.60;0.52;;;24.90;45.10;;;;;;4995821;28;20041;-74
2022/05/15 10:29:27;;;;;;;4.32;0.82;;;24.80;44.00;;;;;;4998600;28;20606;-75
2022/05/15 10:32:03;;;;;;;6.95;0.70;;;24.90;45.40;;;;;;4977298;28;22052;-74
2022/05/15 10:34:31;;;;;;;3.72;1.13;;;25.00;45.30;;;;;;5029044;28;20128;-74
2022/05/15 10:37:36;;;;;;;3.33;0.45;;;25.20;44.80;;;;;;5012912;28;20594;-73
2022/05/15 10:40:19;;;;;;;3.80;0.70;;;25.20;43.90;;;;;;4989562;28;20392;-74
2022/05/15 10:43:04;;;;;;;3.47;1.65;;;25.20;43.60;;;;;;4994012;28;20135;-74
2022/05/15 10:45:50;;;;;;;1.67;0.50;;;25.20;44.70;;;;;;4978733;28;20727;-74
2022/05/15 10:48:26;;;;;;;2.10;0.40;;;25.30;43.40;;;;;;4998008;28;20839;-73
2022/05/15 10:51:34;;;;;;;3.05;0.50;;;25.30;41.50;;;;;;4999221;28;20044;-74
2022/05/15 10:57:26;;;;;;;4.38;0.55;;;25.20;44.80;;;;;;4977762;28;20539;-74
2022/05/15 11:00:26;;;;;;;1.48;0.40;;;25.30;42.60;;;;;;4996356;28;20044;-74
2022/05/15 11:02:59;;;;;;;2.22;0.47;;;25.20;43.30;;;;;;4965351;28;20119;-74
2022/05/15 11:05:30;;;;;;;3.22;0.90;;;25.20;43.40;;;;;;4977301;28;20041;-73
2022/05/15 11:08:26;;;;;;;7.78;1.02;;;25.20;44.20;;;;;;4977540;28;20037;-74
2022/05/15 11:11:12;;;;;;;3.75;1.23;;;25.20;43.10;;;;;;4977362;28;20820;-74
2022/05/15 11:13:53;;;;;;;3.97;1.10;;;25.20;43.90;;;;;;4975988;28;20057;-73
2022/05/15 11:16:50;;;;;;;1.63;0.60;;;25.30;43.30;;;;;;4975540;28;20197;-74
2022/05/15 11:19:20;;;;;;;2.83;0.40;;;25.50;42.40;;;;;;4978244;28;20053;-73
2022/05/15 11:21:57;;;;;;;2.00;0.50;;;25.50;41.70;;;;;;4975960;28;20106;-73
2022/05/15 11:24:43;;;;;;;4.05;0.40;;;25.50;41.90;;;;;;4975588;28;21157;-73
2022/05/15 11:27:24;;;;;;;1.70;0.40;;;25.50;42.90;;;;;;5007514;28;20464;-73
2022/05/15 11:29:55;;;;;;;3.80;0.77;;;25.40;43.20;;;;;;4976568;28;20042;-74
2022/05/15 11:32:39;;;;;;;1.40;0.30;;;25.40;42.30;;;;;;4973122;28;20404;-74
2022/05/15 11:35:19;;;;;;;3.90;0.40;;;25.40;40.10;;;;;;4975800;28;22169;-73
2022/05/15 11:38:11;;;;;;;2.67;0.55;;;25.40;41.20;;;;;;4974496;28;21172;-73
2022/05/15 11:40:42;;;;;;;2.72;0.40;;;25.40;42.30;;;;;;4977415;28;20056;-73
2022/05/15 11:43:30;;;;;;;2.72;0.40;;;25.40;42.50;;;;;;4978001;28;20209;-73
2022/05/15 11:46:09;;;;;;;2.83;0.40;;;25.40;42.10;;;;;;4975201;28;20057;-73
2022/05/15 11:48:43;;;;;;;1.30;0.60;;;25.50;40.40;;;;;;4988396;28;20057;-74
2022/05/15 11:51:13;;;;;;;2.08;0.30;;;25.40;41.50;;;;;;4971288;28;20580;-72
2022/05/15 11:54:07;;;;;;;6.55;0.52;;;25.60;41.60;;;;;;4976501;28;20045;-72
2022/05/15 11:56:39;;;;;;;2.53;0.50;;;25.60;43.10;;;;;;4973104;28;20053;-73
2022/05/15 11:59:06;;;;;;;2.65;0.60;;;25.60;43.80;;;;;;4958944;28;20053;-73
2022/05/15 12:01:35;;;;;;;1.58;0.40;;;25.60;44.00;;;;;;4977484;28;20056;-72
2022/05/15 12:04:34;;;;;;;3.92;0.50;;;25.70;42.90;;;;;;4976877;28;20045;-74
2022/05/15 12:07:01;;;;;;;2.80;0.40;;;25.50;42.30;;;;;;4993069;28;20124;-74
2022/05/15 12:09:40;;;;;;;1.60;0.43;;;25.30;43.00;;;;;;4992109;28;20040;-75
2022/05/15 12:12:43;;;;;;;2.22;0.70;;;25.40;42.00;;;;;;5010845;28;20049;-73
2022/05/15 12:15:16;;;;;;;2.97;0.50;;;25.40;44.00;;;;;;4994784;28;20069;-75
2022/05/15 12:17:44;;;;;;;3.13;0.43;;;25.70;44.40;;;;;;4997668;28;20052;-75
2022/05/15 12:20:17;;;;;;;1.70;0.40;;;25.80;43.70;;;;;;4997846;28;20045;-73
2022/05/15 12:23:13;;;;;;;5.22;0.65;;;25.90;43.20;;;;;;4998108;28;20261;-73
2022/05/15 12:25:58;;;;;;;1.52;0.30;;;25.90;40.70;;;;;;4995052;28;20071;-73
2022/05/15 12:29:03;;;;;;;1.77;0.30;;;25.70;41.30;;;;;;4998751;28;20041;-73
2022/05/15 12:31:42;;;;;;;3.55;0.35;;;25.70;43.90;;;;;;4999720;28;20044;-73
2022/05/15 12:34:32;;;;;;;2.47;0.30;;;25.80;43.60;;;;;;4998978;28;20524;-75
2022/05/15 12:37:02;;;;;;;3.78;0.60;;;25.80;43.80;;;;;;4999772;28;20106;-76
2022/05/15 12:39:39;;;;;;;2.45;0.50;;;25.70;42.10;;;;;;4999840;28;20056;-76
2022/05/15 12:42:19;;;;;;;2.65;0.77;;;25.80;42.80;;;;;;5004301;28;20056;-74
2022/05/15 12:45:00;;;;;;;3.08;0.50;;;25.90;43.20;;;;;;4982210;28;20056;-75
2022/05/15 12:47:32;;;;;;;2.22;0.77;;;25.80;42.50;;;;;;4999652;28;20052;-76
2022/05/15 12:50:04;;;;;;;2.03;0.70;;;25.70;41.50;;;;;;4998427;28;20538;-76
2022/05/15 12:52:34;;;;;;;1.20;0.47;;;25.60;41.60;;;;;;5013428;28;20045;-75
2022/05/15 12:55:06;;;;;;;2.17;0.55;;;25.60;42.20;;;;;;4999577;28;20740;-76
2022/05/15 12:57:45;;;;;;;2.58;0.68;;;25.60;42.70;;;;;;4994146;28;20056;-75
2022/05/15 13:00:15;;;;;;;4.93;0.70;;;25.60;42.40;;;;;;4990248;28;20049;-75
2022/05/15 13:02:43;;;;;;;4.95;0.68;;;25.70;42.80;;;;;;4976245;28;22031;-75
2022/05/15 13:05:30;;;;;;;2.88;0.40;;;25.90;43.10;;;;;;4996647;28;20063;-75
2022/05/15 13:08:04;;;;;;;3.83;0.75;;;25.80;41.80;;;;;;4995861;28;20098;-76
2022/05/15 13:10:34;;;;;;;5.13;0.90;;;25.60;42.40;;;;;;4980372;28;20067;-75
2022/05/15 13:13:18;;;;;;;4.63;0.93;;;25.80;44.30;;;;;;5012004;28;22029;-76
2022/05/15 13:15:49;;;;;;;1.73;0.60;;;25.80;42.40;;;;;;4991595;28;20044;-76
2022/05/15 13:18:17;;;;;;;3.08;0.82;;;25.90;42.30;;;;;;4996142;28;20055;-75
2022/05/15 13:20:52;;;;;;;2.47;0.90;;;25.90;43.20;;;;;;4995360;28;20072;-76
2022/05/15 13:23:20;;;;;;;3.42;0.60;;;25.90;43.70;;;;;;4994170;28;20056;-76
2022/05/15 13:25:52;;;;;;;3.88;0.52;;;25.70;42.00;;;;;;4997944;28;20053;-75
2022/05/15 13:28:20;;;;;;;2.10;0.88;;;25.70;42.70;;;;;;5029161;28;22611;-76
2022/05/15 13:30:47;;;;;;;1.45;0.60;;;25.70;43.70;;;;;;4992665;28;20072;-76